sensor_id;sensor_type;location;lat;lon;timestamp;pressure;altitude;pressure_sealevel;temperature;humidity
71643;BME280;59438;45.014;39.006;2022-11-20T00:01:10;101962.47;;;12.78;75.55
71643;BME280;59438;45.014;39.006;2022-11-20T00:03:37;101958.13;;;12.75;75.23
71643;BME280;59438;45.014;39.006;2022-11-20T00:06:05;101950.41;;;12.67;75.15
71643;BME280;59438;45.014;39.006;2022-11-20T00:08:32;101957.47;;;12.67;75.16
71643;BME280;59438;45.014;39.006;2022-11-20T00:11:03;101954.88;;;12.65;75.57
71643;BME280;59438;45.014;39.006;2022-11-20T00:13:29;101958.44;;;12.64;75.13
71643;BME280;59438;45.014;39.006;2022-11-20T00:15:59;101952.31;;;12.62;75.11
71643;BME280;59438;45.014;39.006;2022-11-20T00:18:27;101955.03;;;12.59;75.05
71643;BME280;59438;45.014;39.006;2022-11-20T00:20:59;101949.06;;;12.53;74.97
71643;BME280;59438;45.014;39.006;2022-11-20T00:23:25;101952.56;;;12.52;74.97
71643;BME280;59438;45.014;39.006;2022-11-20T00:25:52;101951.81;;;12.48;75.13
71643;BME280;59438;45.014;39.006;2022-11-20T00:28:18;101955.34;;;12.47;75.25
71643;BME280;59438;45.014;39.006;2022-11-20T00:30:45;101958.81;;;12.47;74.92
71643;BME280;59438;45.014;39.006;2022-11-20T00:33:11;101964.19;;;12.44;74.97
71643;BME280;59438;45.014;39.006;2022-11-20T00:35:39;101958.94;;;12.43;74.99
71643;BME280;59438;45.014;39.006;2022-11-20T00:38:05;101959.06;;;12.38;74.73
71643;BME280;59438;45.014;39.006;2022-11-20T00:40:32;101961.72;;;12.38;74.97
71643;BME280;59438;45.014;39.006;2022-11-20T00:42:58;101958.25;;;12.36;74.60
71643;BME280;59438;45.014;39.006;2022-11-20T00:45:25;101949.56;;;12.31;74.56
71643;BME280;59438;45.014;39.006;2022-11-20T00:47:51;101940.91;;;12.27;74.51
71643;BME280;59438;45.014;39.006;2022-11-20T00:50:18;101940.94;;;12.26;74.67
71643;BME280;59438;45.014;39.006;2022-11-20T00:52:46;101928.72;;;12.23;74.77
71643;BME280;59438;45.014;39.006;2022-11-20T00:55:12;101949.03;;;12.17;74.71
71643;BME280;59438;45.014;39.006;2022-11-20T00:57:39;101953.47;;;12.15;74.35
71643;BME280;59438;45.014;39.006;2022-11-20T01:00:06;101952.72;;;12.09;74.37
71643;BME280;59438;45.014;39.006;2022-11-20T01:02:33;101948.47;;;12.04;74.59
71643;BME280;59438;45.014;39.006;2022-11-20T01:04:59;101954.53;;;12.07;74.50
71643;BME280;59438;45.014;39.006;2022-11-20T01:07:26;101953.69;;;12.07;74.44
71643;BME280;59438;45.014;39.006;2022-11-20T01:09:53;101953.69;;;12.07;74.92
71643;BME280;59438;45.014;39.006;2022-11-20T01:12:20;101949.28;;;12.06;74.94
71643;BME280;59438;45.014;39.006;2022-11-20T01:14:47;101946.75;;;12.03;74.93
71643;BME280;59438;45.014;39.006;2022-11-20T01:17:13;101945.84;;;12.04;74.53
71643;BME280;59438;45.014;39.006;2022-11-20T01:19:40;101937.13;;;12.00;74.48
71643;BME280;59438;45.014;39.006;2022-11-20T01:22:06;101938.06;;;11.98;74.85
71643;BME280;59438;45.014;39.006;2022-11-20T01:24:33;101936.38;;;11.95;74.92
71643;BME280;59438;45.014;39.006;2022-11-20T01:27:01;101939.06;;;11.92;74.89
71643;BME280;59438;45.014;39.006;2022-11-20T01:29:27;101954.03;;;11.90;74.93
71643;BME280;59438;45.014;39.006;2022-11-20T01:31:53;101952.31;;;11.87;74.89
71643;BME280;59438;45.014;39.006;2022-11-20T01:34:21;101941.91;;;11.83;75.24
71643;BME280;59438;45.014;39.006;2022-11-20T01:36:48;101922.88;;;11.72;74.61
71643;BME280;59438;45.014;39.006;2022-11-20T01:39:17;101939.34;;;11.80;74.75
71643;BME280;59438;45.014;39.006;2022-11-20T01:41:45;101942.00;;;11.78;74.80
71643;BME280;59438;45.014;39.006;2022-11-20T01:44:15;101949.06;;;11.78;74.61
71643;BME280;59438;45.014;39.006;2022-11-20T01:46:52;101948.16;;;11.77;74.66
71643;BME280;59438;45.014;39.006;2022-11-20T01:49:24;101950.91;;;11.73;74.51
71643;BME280;59438;45.014;39.006;2022-11-20T01:51:54;101953.53;;;11.73;74.67
71643;BME280;59438;45.014;39.006;2022-11-20T01:54:27;101918.00;;;11.53;74.72
71643;BME280;59438;45.014;39.006;2022-11-20T01:56:57;101957.16;;;11.67;74.62
71643;BME280;59438;45.014;39.006;2022-11-20T01:59:28;101950.19;;;11.66;74.54
71643;BME280;59438;45.014;39.006;2022-11-20T02:01:56;101954.59;;;11.65;74.47
71643;BME280;59438;45.014;39.006;2022-11-20T02:04:23;101947.66;;;11.61;74.72
71643;BME280;59438;45.014;39.006;2022-11-20T02:06:56;101931.16;;;11.53;74.79
71643;BME280;59438;45.014;39.006;2022-11-20T02:09:25;101934.66;;;11.54;74.87
71643;BME280;59438;45.014;39.006;2022-11-20T02:11:51;101936.44;;;11.52;74.51
71643;BME280;59438;45.014;39.006;2022-11-20T02:14:18;101938.25;;;11.49;74.45
71643;BME280;59438;45.014;39.006;2022-11-20T02:16:47;101934.81;;;11.46;74.62
71643;BME280;59438;45.014;39.006;2022-11-20T02:19:22;101943.69;;;11.40;74.67
71643;BME280;59438;45.014;39.006;2022-11-20T02:21:55;101942.00;;;11.38;74.37
71643;BME280;59438;45.014;39.006;2022-11-20T02:24:25;101933.28;;;11.34;74.43
71643;BME280;59438;45.014;39.006;2022-11-20T02:26:54;101930.72;;;11.33;75.05
71643;BME280;59438;45.014;39.006;2022-11-20T02:29:25;101910.81;;;11.19;75.21
71643;BME280;59438;45.014;39.006;2022-11-20T02:31:55;101928.09;;;11.31;75.28
71643;BME280;59438;45.014;39.006;2022-11-20T02:34:22;101931.63;;;11.30;74.42
71643;BME280;59438;45.014;39.006;2022-11-20T02:36:49;101937.91;;;11.24;74.63
71643;BME280;59438;45.014;39.006;2022-11-20T02:39:17;101943.94;;;11.28;74.95
71643;BME280;59438;45.014;39.006;2022-11-20T02:41:47;101944.00;;;11.25;75.22
71643;BME280;59438;45.014;39.006;2022-11-20T02:44:13;101944.91;;;11.24;75.04
71643;BME280;59438;45.014;39.006;2022-11-20T02:46:39;101951.06;;;11.23;75.15
71643;BME280;59438;45.014;39.006;2022-11-20T02:49:06;101942.34;;;11.21;74.75
71643;BME280;59438;45.014;39.006;2022-11-20T02:51:32;101937.09;;;11.19;75.32
71643;BME280;59438;45.014;39.006;2022-11-20T02:53:59;101940.72;;;11.14;74.91
71643;BME280;59438;45.014;39.006;2022-11-20T02:56:25;101943.28;;;11.17;74.75
71643;BME280;59438;45.014;39.006;2022-11-20T02:58:53;101942.44;;;11.16;75.68
71643;BME280;59438;45.014;39.006;2022-11-20T03:01:19;101939.75;;;11.18;75.37
71643;BME280;59438;45.014;39.006;2022-11-20T03:03:46;101942.38;;;11.19;75.58
71643;BME280;59438;45.014;39.006;2022-11-20T03:06:12;101943.28;;;11.17;74.90
71643;BME280;59438;45.014;39.006;2022-11-20T03:08:39;101945.84;;;11.20;75.00
71643;BME280;59438;45.014;39.006;2022-11-20T03:11:06;101953.00;;;11.13;74.99
71643;BME280;59438;45.014;39.006;2022-11-20T03:13:33;101943.41;;;11.12;74.76
71643;BME280;59438;45.014;39.006;2022-11-20T03:16:07;101940.16;;;10.98;75.09
71643;BME280;59438;45.014;39.006;2022-11-20T03:18:34;101968.91;;;11.05;74.62
71643;BME280;59438;45.014;39.006;2022-11-20T03:21:00;101971.63;;;11.01;74.88
71643;BME280;59438;45.014;39.006;2022-11-20T03:23:28;101970.81;;;10.97;75.04
71643;BME280;59438;45.014;39.006;2022-11-20T03:25:55;101969.13;;;10.95;75.26
71643;BME280;59438;45.014;39.006;2022-11-20T03:28:21;101969.19;;;10.92;75.36
71643;BME280;59438;45.014;39.006;2022-11-20T03:30:48;101966.63;;;10.87;74.82
71643;BME280;59438;45.014;39.006;2022-11-20T03:33:15;101964.09;;;10.81;75.17
71643;BME280;59438;45.014;39.006;2022-11-20T03:35:42;101965.09;;;10.75;75.21
71643;BME280;59438;45.014;39.006;2022-11-20T03:38:08;101965.13;;;10.74;75.74
71643;BME280;59438;45.014;39.006;2022-11-20T03:40:35;101969.53;;;10.72;74.66
71643;BME280;59438;45.014;39.006;2022-11-20T03:43:01;101966.94;;;10.70;74.79
71643;BME280;59438;45.014;39.006;2022-11-20T03:45:28;101980.16;;;10.65;75.24
71643;BME280;59438;45.014;39.006;2022-11-20T03:47:55;101977.56;;;10.62;75.58
71643;BME280;59438;45.014;39.006;2022-11-20T03:50:22;101982.03;;;10.57;75.94
71643;BME280;59438;45.014;39.006;2022-11-20T03:52:49;101982.09;;;10.54;75.54
71643;BME280;59438;45.014;39.006;2022-11-20T03:55:15;101979.50;;;10.53;75.79
71643;BME280;59438;45.014;39.006;2022-11-20T03:57:42;101978.66;;;10.51;75.55
71643;BME280;59438;45.014;39.006;2022-11-20T04:00:09;101977.75;;;10.52;75.76
71643;BME280;59438;45.014;39.006;2022-11-20T04:02:36;101970.72;;;10.52;76.22
71643;BME280;59438;45.014;39.006;2022-11-20T04:05:02;101970.78;;;10.51;76.21
71643;BME280;59438;45.014;39.006;2022-11-20T04:07:30;101943.81;;;10.39;76.15
71643;BME280;59438;45.014;39.006;2022-11-20T04:09:56;101956.75;;;10.52;75.45
71643;BME280;59438;45.014;39.006;2022-11-20T04:12:23;101950.63;;;10.51;76.57
71643;BME280;59438;45.014;39.006;2022-11-20T04:14:49;101948.91;;;10.50;75.77
71643;BME280;59438;45.014;39.006;2022-11-20T04:17:15;101923.75;;;10.35;75.91
71643;BME280;59438;45.014;39.006;2022-11-20T04:19:42;101958.50;;;10.51;76.55
71643;BME280;59438;45.014;39.006;2022-11-20T04:22:08;101944.50;;;10.51;76.61
71643;BME280;59438;45.014;39.006;2022-11-20T04:24:36;101938.41;;;10.48;76.24
71643;BME280;59438;45.014;39.006;2022-11-20T04:27:02;101943.59;;;10.53;76.35
71643;BME280;59438;45.014;39.006;2022-11-20T04:29:29;101947.06;;;10.54;76.28
71643;BME280;59438;45.014;39.006;2022-11-20T04:31:55;101960.22;;;10.54;76.17
71643;BME280;59438;45.014;39.006;2022-11-20T04:34:22;101960.28;;;10.51;76.20
71643;BME280;59438;45.014;39.006;2022-11-20T04:36:48;101962.84;;;10.52;76.13
71643;BME280;59438;45.014;39.006;2022-11-20T04:39:15;101949.84;;;10.46;76.16
71643;BME280;59438;45.014;39.006;2022-11-20T04:41:43;101968.09;;;10.52;75.93
71643;BME280;59438;45.014;39.006;2022-11-20T04:44:09;101974.34;;;10.48;76.54
71643;BME280;59438;45.014;39.006;2022-11-20T04:46:38;101976.97;;;10.46;75.98
71643;BME280;59438;45.014;39.006;2022-11-20T04:49:05;101972.69;;;10.41;76.48
71643;BME280;59438;45.014;39.006;2022-11-20T04:51:32;101977.06;;;10.42;75.82
71643;BME280;59438;45.014;39.006;2022-11-20T04:53:59;101963.22;;;10.31;76.58
71643;BME280;59438;45.014;39.006;2022-11-20T04:56:25;101974.44;;;10.42;76.57
71643;BME280;59438;45.014;39.006;2022-11-20T04:58:53;101977.84;;;10.45;76.88
71643;BME280;59438;45.014;39.006;2022-11-20T05:01:21;101986.63;;;10.46;77.13
71643;BME280;59438;45.014;39.006;2022-11-20T05:03:47;101989.19;;;10.49;76.49
71643;BME280;59438;45.014;39.006;2022-11-20T05:06:15;101983.09;;;10.47;76.00
71643;BME280;59438;45.014;39.006;2022-11-20T05:08:42;101983.06;;;10.50;76.68
71643;BME280;59438;45.014;39.006;2022-11-20T05:11:13;101981.97;;;10.62;77.37
71643;BME280;59438;45.014;39.006;2022-11-20T05:13:40;101968.09;;;10.54;76.51
71643;BME280;59438;45.014;39.006;2022-11-20T05:16:10;101981.84;;;10.69;77.08
71643;BME280;59438;45.014;39.006;2022-11-20T05:18:37;101969.53;;;10.72;76.63
71643;BME280;59438;45.014;39.006;2022-11-20T05:21:05;101962.41;;;10.78;77.12
71643;BME280;59438;45.014;39.006;2022-11-20T05:23:32;101972.81;;;10.84;76.11
71643;BME280;59438;45.014;39.006;2022-11-20T05:25:59;101963.09;;;10.89;77.15
71643;BME280;59438;45.014;39.006;2022-11-20T05:28:27;101942.22;;;10.80;76.36
71643;BME280;59438;45.014;39.006;2022-11-20T05:30:54;101976.91;;;10.99;76.63
71643;BME280;59438;45.014;39.006;2022-11-20T05:33:22;101959.41;;;11.00;76.43
71643;BME280;59438;45.014;39.006;2022-11-20T05:35:48;101963.53;;;11.12;76.64
71643;BME280;59438;45.014;39.006;2022-11-20T05:38:15;101944.25;;;11.13;76.95
71643;BME280;59438;45.014;39.006;2022-11-20T05:40:41;101951.94;;;11.22;76.77
71643;BME280;59438;45.014;39.006;2022-11-20T05:43:08;101965.81;;;11.30;76.59
71643;BME280;59438;45.014;39.006;2022-11-20T05:45:34;101953.38;;;11.38;76.35
71643;BME280;59438;45.014;39.006;2022-11-20T05:48:01;101956.69;;;11.48;76.54
71643;BME280;59438;45.014;39.006;2022-11-20T05:50:29;101954.75;;;11.56;76.97
71643;BME280;59438;45.014;39.006;2022-11-20T05:52:58;101958.91;;;11.68;76.75
71643;BME280;59438;45.014;39.006;2022-11-20T05:55:24;101956.97;;;11.76;76.01
71643;BME280;59438;45.014;39.006;2022-11-20T05:57:53;101955.91;;;11.85;75.61
71643;BME280;59438;45.014;39.006;2022-11-20T06:00:20;101958.44;;;11.91;76.07
71643;BME280;59438;45.014;39.006;2022-11-20T06:02:46;101946.06;;;11.95;76.06
71643;BME280;59438;45.014;39.006;2022-11-20T06:05:13;101961.63;;;12.04;75.52
71643;BME280;59438;45.014;39.006;2022-11-20T06:07:40;101953.59;;;12.10;75.66
71643;BME280;59438;45.014;39.006;2022-11-20T06:10:08;101944.75;;;12.13;75.83
71643;BME280;59438;45.014;39.006;2022-11-20T06:12:34;101949.84;;;12.20;75.69
71643;BME280;59438;45.014;39.006;2022-11-20T06:15:01;101954.97;;;12.26;75.43
71643;BME280;59438;45.014;39.006;2022-11-20T06:17:27;101963.56;;;12.33;75.53
71643;BME280;59438;45.014;39.006;2022-11-20T06:19:54;101951.16;;;12.38;75.40
71643;BME280;59438;45.014;39.006;2022-11-20T06:22:20;101957.13;;;12.45;75.20
71643;BME280;59438;45.014;39.006;2022-11-20T06:24:48;101960.47;;;12.52;75.41
71643;BME280;59438;45.014;39.006;2022-11-20T06:27:15;101962.06;;;12.59;75.38
71643;BME280;59438;45.014;39.006;2022-11-20T06:29:42;101944.31;;;12.65;75.04
71643;BME280;59438;45.014;39.006;2022-11-20T06:32:09;101952.91;;;12.74;75.21
71643;BME280;59438;45.014;39.006;2022-11-20T06:34:35;101950.09;;;12.80;74.96
71643;BME280;59438;45.014;39.006;2022-11-20T06:37:01;101951.63;;;12.88;74.99
71643;BME280;59438;45.014;39.006;2022-11-20T06:39:28;101933.88;;;12.95;74.93
71643;BME280;59438;45.014;39.006;2022-11-20T06:41:56;101939.00;;;13.01;74.79
71643;BME280;59438;45.014;39.006;2022-11-20T06:44:22;101942.28;;;13.09;74.56
71643;BME280;59438;45.014;39.006;2022-11-20T06:46:48;101946.53;;;13.14;74.42
71643;BME280;59438;45.014;39.006;2022-11-20T06:49:15;101942.09;;;13.16;74.30
71643;BME280;59438;45.014;39.006;2022-11-20T06:51:41;101933.28;;;13.17;74.13
71643;BME280;59438;45.014;39.006;2022-11-20T06:54:07;101931.50;;;13.17;74.13
71643;BME280;59438;45.014;39.006;2022-11-20T06:56:34;101939.25;;;13.22;73.95
71643;BME280;59438;45.014;39.006;2022-11-20T06:59:05;101934.81;;;13.24;73.57
71643;BME280;59438;45.014;39.006;2022-11-20T07:01:31;101935.63;;;13.26;73.97
71643;BME280;59438;45.014;39.006;2022-11-20T07:03:58;101938.28;;;13.26;74.02
71643;BME280;59438;45.014;39.006;2022-11-20T07:06:24;101936.41;;;13.31;73.69
71643;BME280;59438;45.014;39.006;2022-11-20T07:08:50;101933.66;;;13.34;73.81
71643;BME280;59438;45.014;39.006;2022-11-20T07:11:17;101933.59;;;13.37;73.83
71643;BME280;59438;45.014;39.006;2022-11-20T07:13:43;101928.22;;;13.40;73.61
71643;BME280;59438;45.014;39.006;2022-11-20T07:16:11;101933.41;;;13.43;73.77
71643;BME280;59438;45.014;39.006;2022-11-20T07:18:38;101930.59;;;13.49;73.60
71643;BME280;59438;45.014;39.006;2022-11-20T07:21:06;101930.50;;;13.53;73.63
71643;BME280;59438;45.014;39.006;2022-11-20T07:23:32;101935.66;;;13.57;73.23
71643;BME280;59438;45.014;39.006;2022-11-20T07:26:03;101936.41;;;13.61;73.20
71643;BME280;59438;45.014;39.006;2022-11-20T07:28:29;101936.34;;;13.64;73.08
71643;BME280;59438;45.014;39.006;2022-11-20T07:30:56;101941.56;;;13.65;73.22
71643;BME280;59438;45.014;39.006;2022-11-20T07:33:24;101937.13;;;13.67;72.76
71643;BME280;59438;45.014;39.006;2022-11-20T07:35:50;101942.31;;;13.69;72.80
71643;BME280;59438;45.014;39.006;2022-11-20T07:38:16;101942.25;;;13.72;73.08
71643;BME280;59438;45.014;39.006;2022-11-20T07:40:43;101918.66;;;13.66;72.79
71643;BME280;59438;45.014;39.006;2022-11-20T07:43:09;101937.66;;;13.77;72.64
71643;BME280;59438;45.014;39.006;2022-11-20T07:45:36;101943.69;;;13.82;72.67
71643;BME280;59438;45.014;39.006;2022-11-20T07:48:02;101947.16;;;13.84;72.43
71643;BME280;59438;45.014;39.006;2022-11-20T07:50:31;101940.13;;;13.83;72.18
71643;BME280;59438;45.014;39.006;2022-11-20T07:53:02;101951.44;;;13.88;72.34
71643;BME280;59438;45.014;39.006;2022-11-20T07:55:28;101955.69;;;13.93;72.44
71643;BME280;59438;45.014;39.006;2022-11-20T07:57:55;101952.94;;;13.96;72.56
71643;BME280;59438;45.014;39.006;2022-11-20T08:00:21;101947.53;;;14.00;72.39
71643;BME280;59438;45.014;39.006;2022-11-20T08:02:48;101944.78;;;14.03;72.63
71643;BME280;59438;45.014;39.006;2022-11-20T08:05:15;101940.38;;;14.04;72.10
71643;BME280;59438;45.014;39.006;2022-11-20T08:07:43;101915.88;;;13.99;72.16
71643;BME280;59438;45.014;39.006;2022-11-20T08:10:12;101929.56;;;14.11;71.88
71643;BME280;59438;45.014;39.006;2022-11-20T08:12:44;101918.78;;;14.18;71.70
71643;BME280;59438;45.014;39.006;2022-11-20T08:15:10;101923.19;;;14.19;71.76
71643;BME280;59438;45.014;39.006;2022-11-20T08:17:36;101915.09;;;14.23;72.35
71643;BME280;59438;45.014;39.006;2022-11-20T08:20:03;101911.44;;;14.27;71.86
71643;BME280;59438;45.014;39.006;2022-11-20T08:22:30;101903.38;;;14.30;71.92
71643;BME280;59438;45.014;39.006;2022-11-20T08:24:58;101901.47;;;14.36;71.94
71643;BME280;59438;45.014;39.006;2022-11-20T08:27:24;101893.38;;;14.40;71.84
71643;BME280;59438;45.014;39.006;2022-11-20T08:29:51;101885.28;;;14.45;71.74
71643;BME280;59438;45.014;39.006;2022-11-20T08:32:17;101873.69;;;14.49;71.50
71643;BME280;59438;45.014;39.006;2022-11-20T08:34:43;101869.16;;;14.52;71.77
71643;BME280;59438;45.014;39.006;2022-11-20T08:37:10;101853.19;;;14.56;71.37
71643;BME280;59438;45.014;39.006;2022-11-20T08:39:36;101847.78;;;14.60;71.55
71643;BME280;59438;45.014;39.006;2022-11-20T08:42:06;101844.16;;;14.63;71.36
71643;BME280;59438;45.014;39.006;2022-11-20T08:44:33;101824.66;;;14.65;71.82
71643;BME280;59438;45.014;39.006;2022-11-20T08:47:00;101825.47;;;14.67;71.30
71643;BME280;59438;45.014;39.006;2022-11-20T08:49:26;101820.19;;;14.67;71.19
71643;BME280;59438;45.014;39.006;2022-11-20T08:51:53;101818.34;;;14.69;71.24
71643;BME280;59438;45.014;39.006;2022-11-20T08:54:19;101813.81;;;14.73;71.57
71643;BME280;59438;45.014;39.006;2022-11-20T08:56:45;101806.63;;;14.77;71.61
71643;BME280;59438;45.014;39.006;2022-11-20T08:59:13;101807.44;;;14.79;71.77
71643;BME280;59438;45.014;39.006;2022-11-20T09:01:40;101804.66;;;14.82;71.92
71643;BME280;59438;45.014;39.006;2022-11-20T09:04:06;101801.84;;;14.86;71.44
71643;BME280;59438;45.014;39.006;2022-11-20T09:06:33;101806.03;;;14.92;71.61
71643;BME280;59438;45.014;39.006;2022-11-20T09:08:59;101802.38;;;14.96;71.81
71643;BME280;59438;45.014;39.006;2022-11-20T09:11:25;101777.00;;;14.90;71.44
71643;BME280;59438;45.014;39.006;2022-11-20T09:13:52;101790.50;;;15.06;71.33
71643;BME280;59438;45.014;39.006;2022-11-20T09:16:20;101789.41;;;15.12;71.60
71643;BME280;59438;45.014;39.006;2022-11-20T09:18:46;101797.13;;;15.18;71.23
71643;BME280;59438;45.014;39.006;2022-11-20T09:21:13;101784.50;;;15.25;71.20
71643;BME280;59438;45.014;39.006;2022-11-20T09:23:40;101789.56;;;15.31;71.04
71643;BME280;59438;45.014;39.006;2022-11-20T09:26:10;101779.66;;;15.36;71.60
71643;BME280;59438;45.014;39.006;2022-11-20T09:28:37;101776.81;;;15.41;71.18
71643;BME280;59438;45.014;39.006;2022-11-20T09:31:05;101776.63;;;15.45;70.94
71643;BME280;59438;45.014;39.006;2022-11-20T09:33:33;101772.13;;;15.47;70.22
71643;BME280;59438;45.014;39.006;2022-11-20T09:35:59;101770.34;;;15.48;70.90
71643;BME280;59438;45.014;39.006;2022-11-20T09:38:26;101783.53;;;15.49;70.81
71643;BME280;59438;45.014;39.006;2022-11-20T09:40:57;101773.66;;;15.53;70.56
71643;BME280;59438;45.014;39.006;2022-11-20T09:43:32;101766.59;;;15.54;70.39
71643;BME280;59438;45.014;39.006;2022-11-20T09:46:08;101773.53;;;15.56;69.87
71643;BME280;59438;45.014;39.006;2022-11-20T09:48:45;101769.97;;;15.57;70.44
71643;BME280;59438;45.014;39.006;2022-11-20T09:51:25;101752.78;;;15.45;70.40
71643;BME280;59438;45.014;39.006;2022-11-20T09:54:04;101765.44;;;15.61;70.28
71643;BME280;59438;45.014;39.006;2022-11-20T09:56:34;101762.81;;;15.59;70.17
71643;BME280;59438;45.014;39.006;2022-11-20T09:59:05;101761.19;;;15.57;69.88
71643;BME280;59438;45.014;39.006;2022-11-20T10:01:35;101755.69;;;15.61;70.46
71643;BME280;59438;45.014;39.006;2022-11-20T10:04:06;101745.84;;;15.65;70.11
71643;BME280;59438;45.014;39.006;2022-11-20T10:06:41;101743.97;;;15.67;70.05
71643;BME280;59438;45.014;39.006;2022-11-20T10:09:19;101741.25;;;15.68;70.01
71643;BME280;59438;45.014;39.006;2022-11-20T10:11:59;101751.72;;;15.71;70.02
71643;BME280;59438;45.014;39.006;2022-11-20T10:14:38;101738.47;;;15.71;69.67
71643;BME280;59438;45.014;39.006;2022-11-20T10:17:14;101742.81;;;15.74;69.86
71643;BME280;59438;45.014;39.006;2022-11-20T10:20:02;101740.03;;;15.77;69.66
71643;BME280;59438;45.014;39.006;2022-11-20T10:22:48;101745.22;;;15.80;70.00
71643;BME280;59438;45.014;39.006;2022-11-20T10:25:19;101726.66;;;15.80;69.75
71643;BME280;59438;45.014;39.006;2022-11-20T10:28:01;101729.84;;;15.88;69.55
71643;BME280;59438;45.014;39.006;2022-11-20T10:30:31;101728.78;;;15.93;69.88
71643;BME280;59438;45.014;39.006;2022-11-20T10:33:05;101711.63;;;15.81;69.57
71643;BME280;59438;45.014;39.006;2022-11-20T10:35:41;101720.63;;;15.97;69.70
71643;BME280;59438;45.014;39.006;2022-11-20T10:38:14;101714.28;;;16.01;69.33
71643;BME280;59438;45.014;39.006;2022-11-20T10:40:44;101709.03;;;16.00;69.77
71643;BME280;59438;45.014;39.006;2022-11-20T10:43:15;101699.03;;;16.06;69.10
71643;BME280;59438;45.014;39.006;2022-11-20T10:45:47;101698.56;;;16.17;69.63
71643;BME280;59438;45.014;39.006;2022-11-20T10:48:17;101680.56;;;16.05;69.51
71643;BME280;59438;45.014;39.006;2022-11-20T10:50:55;101691.53;;;16.16;69.13
71643;BME280;59438;45.014;39.006;2022-11-20T10:53:36;101687.75;;;16.22;69.03
71643;BME280;59438;45.014;39.006;2022-11-20T10:56:11;101692.75;;;16.28;69.50
71643;BME280;59438;45.014;39.006;2022-11-20T10:58:47;101688.75;;;16.38;69.48
71643;BME280;59438;45.014;39.006;2022-11-20T11:01:17;101679.69;;;16.44;69.18
71643;BME280;59438;45.014;39.006;2022-11-20T11:03:45;101678.31;;;16.54;68.97
71643;BME280;59438;45.014;39.006;2022-11-20T11:06:19;101679.38;;;16.69;68.42
71643;BME280;59438;45.014;39.006;2022-11-20T11:08:49;101675.66;;;16.73;68.67
71643;BME280;59438;45.014;39.006;2022-11-20T11:11:21;101670.03;;;16.81;68.48
71643;BME280;59438;45.014;39.006;2022-11-20T11:13:49;101675.03;;;16.87;68.60
71643;BME280;59438;45.014;39.006;2022-11-20T11:16:23;101664.19;;;16.91;68.36
71643;BME280;59438;45.014;39.006;2022-11-20T11:18:49;101655.31;;;16.92;68.60
71643;BME280;59438;45.014;39.006;2022-11-20T11:21:24;101655.09;;;16.97;68.35
71643;BME280;59438;45.014;39.006;2022-11-20T11:23:59;101658.47;;;17.01;68.43
71643;BME280;59438;45.014;39.006;2022-11-20T11:26:26;101656.50;;;17.04;68.53
71643;BME280;59438;45.014;39.006;2022-11-20T11:28:54;101658.06;;;17.08;68.31
71643;BME280;59438;45.014;39.006;2022-11-20T11:31:25;101649.00;;;17.12;68.01
71643;BME280;59438;45.014;39.006;2022-11-20T11:33:52;101652.06;;;17.22;68.22
71643;BME280;59438;45.014;39.006;2022-11-20T11:36:22;101642.06;;;17.27;67.71
71643;BME280;59438;45.014;39.006;2022-11-20T11:38:51;101637.47;;;17.31;67.82
71643;BME280;59438;45.014;39.006;2022-11-20T11:41:22;101632.16;;;17.31;67.65
71643;BME280;59438;45.014;39.006;2022-11-20T11:43:52;101620.75;;;17.29;67.50
71643;BME280;59438;45.014;39.006;2022-11-20T11:46:30;101631.91;;;17.36;67.52
71643;BME280;59438;45.014;39.006;2022-11-20T11:48:58;101624.25;;;17.29;67.94
71643;BME280;59438;45.014;39.006;2022-11-20T11:51:32;101630.28;;;17.33;67.65
71643;BME280;59438;45.014;39.006;2022-11-20T11:54:01;101629.50;;;17.31;67.85
71643;BME280;59438;45.014;39.006;2022-11-20T11:56:30;101636.44;;;17.33;67.81
71643;BME280;59438;45.014;39.006;2022-11-20T11:59:04;101631.22;;;17.32;67.72
71643;BME280;59438;45.014;39.006;2022-11-20T12:01:34;101626.72;;;17.34;67.96
71643;BME280;59438;45.014;39.006;2022-11-20T12:04:05;101624.91;;;17.35;67.87
71643;BME280;59438;45.014;39.006;2022-11-20T12:06:39;101619.53;;;17.36;67.93
71643;BME280;59438;45.014;39.006;2022-11-20T12:09:10;101607.34;;;17.32;68.06
71643;BME280;59438;45.014;39.006;2022-11-20T12:11:41;101613.31;;;17.36;68.07
71643;BME280;59438;45.014;39.006;2022-11-20T12:14:14;101592.63;;;17.25;67.70
71643;BME280;59438;45.014;39.006;2022-11-20T12:16:41;101597.41;;;17.36;68.04
71643;BME280;59438;45.014;39.006;2022-11-20T12:19:11;101596.53;;;17.35;67.81
71643;BME280;59438;45.014;39.006;2022-11-20T12:21:47;101601.72;;;17.38;67.78
71643;BME280;59438;45.014;39.006;2022-11-20T12:24:41;101594.34;;;17.43;67.91
71643;BME280;59438;45.014;39.006;2022-11-20T12:30:14;101576.16;;;17.36;67.93
71643;BME280;59438;45.014;39.006;2022-11-20T12:33:08;101570.38;;;17.45;67.66
71643;BME280;59438;45.014;39.006;2022-11-20T12:35:50;101572.25;;;17.43;67.67
71643;BME280;59438;45.014;39.006;2022-11-20T12:41:32;101564.69;;;17.35;68.11
71643;BME280;59438;45.014;39.006;2022-11-20T12:44:13;101579.69;;;17.36;68.56
71643;BME280;59438;45.014;39.006;2022-11-20T12:46:47;101555.47;;;17.25;68.40
71643;BME280;59438;45.014;39.006;2022-11-20T12:49:28;101572.72;;;17.33;68.05
71643;BME280;59438;45.014;39.006;2022-11-20T12:52:06;101584.28;;;17.32;68.46
71643;BME280;59438;45.014;39.006;2022-11-20T12:55:00;101584.38;;;17.31;68.49